Latest Weather Observations for Bairnsdale

IDV60801

Issued at 10:05 am EDT Tuesday 21 October 2014 (issued every 30 minutes, with the page automatically refreshed every 10 minutes)

About weather observations | Map of weather stations | Latest weather observations for VIC | Other Formats
Station Details ID: 085279 Name: BAIRNSDALE AIRPORT Lat: -37.88 Lon: 147.57 Height: 49.4 m
Data from the previous 72 hours. | See also: Recent months at Bairnsdale
Date/Time
EDT
Temp
°C
App
Temp
°C
Dew
Point
Rel
Hum
%
Delta-T
°C
Wind Press
QNH
hPa
Press
MSL
hPa
Rain
since 9 am
mm
Dir
 
Spd
km/h
Gust
km/h
Spd
kts
Gust
kts
21/10:00am 14.5 12.3 8.0 65 3.2 NE 9 13 5 7 1029.7 1029.7 0.0
21/09:30am 13.7 11.2 8.3 70 2.7 NE 11 13 6 7 1029.7 1029.7 0.0
21/09:00am 12.4 9.3 7.3 71 2.5 ENE 13 19 7 10 1029.7 1029.7 0.0
21/08:30am 12.9 10.6 9.0 77 2.0 E 11 15 6 8 1029.6 1029.6 0.0
21/08:00am 11.5 9.0 8.0 79 1.7 E 11 13 6 7 1029.5 1029.5 0.0
21/07:30am 10.3 8.4 7.5 83 1.3 ENE 7 9 4 5 1029.6 1029.6 0.0
21/07:00am 10.0 7.0 7.9 87 1.0 E 13 17 7 9 1029.2 1029.3 0.0
21/06:30am 8.2 5.2 6.0 86 1.0 E 11 17 6 9 1029.1 1029.2 0.0
21/06:00am 7.9 4.5 5.7 86 1.0 E 13 17 7 9 1028.9 1029.0 0.0
21/05:30am 8.4 4.6 5.9 84 1.1 ENE 15 20 8 11 1028.9 1029.0 0.0
21/05:00am 8.7 4.6 6.2 84 1.1 E 17 20 9 11 1028.8 1028.9 0.0
21/04:30am 8.5 4.8 6.1 85 1.1 E 15 17 8 9 1028.9 1029.0 0.0
21/04:00am 8.5 5.0 5.6 82 1.3 E 13 17 7 9 1029.2 1029.3 0.0
21/03:30am 8.7 5.7 5.8 82 1.3 ENE 11 13 6 7 1029.6 1029.6 0.0
21/03:00am 8.7 5.7 5.8 82 1.3 ENE 11 13 6 7 1029.8 1029.8 0.0
21/02:30am 9.3 6.3 5.9 79 1.6 ENE 11 15 6 8 1030.0 1030.0 0.0
21/02:00am 9.5 6.5 6.2 80 1.5 ENE 11 15 6 8 1030.2 1030.2 0.0
21/01:30am 10.0 7.0 6.2 77 1.8 E 11 13 6 7 1030.5 1030.5 0.0
21/01:00am 11.0 7.7 6.2 72 2.2 E 13 17 7 9 1030.8 1030.8 0.0
21/12:30am 12.0 8.7 6.5 69 2.6 E 13 17 7 9 1031.0 1031.0 0.0
21/12:00am 12.7 8.1 6.5 66 2.9 E 20 30 11 16 1031.2 1031.2 0.0
 
Date/Time
EDT
Temp
°C
App
Temp
°C
Dew
Point
Rel
Hum
%
Delta-T
°C
Wind Press
QNH
hPa
Press
MSL
hPa
Rain
since 9 am
mm
Dir
 
Spd
km/h
Gust
km/h
Spd
kts
Gust
kts
20/11:30pm 13.2 7.5 6.8 65 3.1 E 26 35 14 19 1031.4 1031.4 0.0
20/11:00pm 13.2 7.5 6.5 64 3.2 E 26 39 14 21 1031.3 1031.3 0.0
20/10:30pm 13.2 6.1 6.3 63 3.3 E 33 43 18 23 1031.6 1031.6 0.0
20/10:00pm 13.2 5.8 6.8 65 3.1 E 35 48 19 26 1031.6 1031.6 0.0
20/09:30pm 13.0 6.1 6.4 64 3.2 E 32 41 17 22 1031.4 1031.4 0.0
20/09:00pm 12.8 5.7 6.2 64 3.1 E 33 43 18 23 1031.6 1031.6 0.0
20/08:30pm 12.4 7.1 6.7 68 2.7 E 24 33 13 18 1031.3 1031.3 0.0
20/08:00pm 12.7 5.7 6.1 64 3.1 E 32 43 17 23 1031.2 1031.2 0.0
20/07:30pm 12.7 6.2 6.3 65 3.0 E 30 43 16 23 1031.0 1031.0 0.0
20/07:00pm 13.2 6.1 6.3 63 3.3 E 33 44 18 24 1030.8 1030.8 0.0
20/06:30pm 13.9 7.3 6.0 59 3.8 E 30 44 16 24 1030.4 1030.4 0.0
20/06:00pm 14.5 7.5 6.1 57 4.0 E 32 44 17 24 1030.7 1030.7 0.0
20/05:30pm 14.9 7.9 6.2 56 4.2 E 32 43 17 23 1030.5 1030.5 0.0
20/05:00pm 15.2 8.3 6.5 56 4.2 ESE 32 44 17 24 1030.4 1030.4 0.0
20/04:30pm 15.1 8.3 6.7 57 4.1 E 32 46 17 25 1030.3 1030.3 0.0
20/04:00pm 15.4 7.9 6.4 55 4.3 ESE 35 46 19 25 1030.1 1030.1 0.0
20/03:30pm 16.0 9.2 7.5 57 4.2 E 33 46 18 25 1030.3 1030.3 0.0
20/03:00pm 15.5 8.7 7.5 59 4.0 E 33 44 18 24 1030.3 1030.3 0.0
20/02:30pm 16.4 10.8 8.6 60 4.0 ESE 28 44 15 24 1030.6 1030.6 0.0
20/02:00pm 16.5 10.8 6.6 52 4.8 ESE 26 33 14 18 1030.9 1030.9 0.0
20/01:30pm 16.0 11.1 7.0 55 4.5 ESE 22 32 12 17 1031.1 1031.1 0.0
20/01:00pm 16.7 12.3 7.4 54 4.6 ESE 20 28 11 15 1031.2 1031.2 0.0
20/12:30pm 16.4 12.3 6.0 50 5.1 E 17 26 9 14 1031.4 1031.4 0.0
20/12:00pm 16.1 12.5 4.8 47 5.3 E 13 22 7 12 1031.8 1031.8 0.0
20/11:30am 15.4 11.6 3.9 46 5.3 E 13 22 7 12 1032.2 1032.2 0.0
20/11:00am 15.6 12.0 4.9 49 5.0 ENE 13 19 7 10 1032.2 1032.2 0.0
20/10:30am 15.6 13.1 6.6 55 4.4 NE 9 15 5 8 1032.3 1032.3 0.0
20/10:00am 14.2 11.7 4.8 53 4.3 NE 7 15 4 8 1032.4 1032.4 0.0
20/09:30am 14.4 11.2 5.2 54 4.3 ESE 11 15 6 8 1032.2 1032.2 0.0
20/09:00am 13.5 10.7 5.2 57 3.8 S 9 13 5 7 1032.1 1032.1 0.0
20/08:30am 12.5 10.1 5.2 61 3.4 SW 7 13 4 7 1031.8 1031.8 0.0
20/08:00am 11.9 9.9 6.4 69 2.6 SW 6 9 3 5 1031.4 1031.4 0.0
20/07:30am 11.5 9.8 8.4 81 1.5 NW 7 9 4 5 1031.1 1031.1 0.0
20/07:00am 10.6 8.7 7.7 82 1.4 NW 7 9 4 5 1030.8 1030.8 0.0
20/06:30am 10.5 8.1 7.2 80 1.6 WSW 9 11 5 6 1030.6 1030.6 0.0
20/06:00am 10.7 8.0 7.2 79 1.7 WSW 11 13 6 7 1030.5 1030.5 0.0
20/05:30am 10.9 8.5 7.0 77 1.9 W 9 11 5 6 1030.3 1030.3 0.0
20/05:00am 11.1 8.4 7.2 77 1.9 WSW 11 15 6 8 1030.0 1030.0 0.0
20/04:30am 11.2 8.1 7.3 77 1.9 WSW 13 19 7 10 1029.8 1029.8 0.0
20/04:00am 11.4 8.4 7.5 77 1.9 WSW 13 19 7 10 1029.9 1029.9 0.0
20/03:30am 11.4 8.4 7.7 78 1.8 WSW 13 17 7 9 1029.8 1029.8 0.0
20/03:00am 11.6 8.6 7.7 77 1.9 SW 13 19 7 10 1029.6 1029.6 0.0
20/02:30am 11.9 7.5 7.6 75 2.1 SW 20 26 11 14 1029.3 1029.4 0.0
20/02:00am 12.2 6.8 7.9 75 2.1 SSW 26 33 14 18 1029.0 1029.1 0.0
20/01:30am 12.4 8.3 8.5 77 1.9 SSW 20 30 11 16 1028.7 1028.8 0.0
20/01:00am 13.0 7.7 8.5 74 2.2 SSW 26 33 14 18 1028.3 1028.3 0.0
20/12:30am 13.3 6.9 8.6 73 2.4 SW 32 41 17 22 1027.9 1027.9 0.0
20/12:00am 13.7 9.1 9.6 76 2.1 SW 24 33 13 18 1027.4 1027.4 0.0
 
Date/Time
EDT
Temp
°C
App
Temp
°C
Dew
Point
Rel
Hum
%
Delta-T
°C
Wind Press
QNH
hPa
Press
MSL
hPa
Rain
since 9 am
mm
Dir
 
Spd
km/h
Gust
km/h
Spd
kts
Gust
kts
19/11:30pm 13.9 9.3 9.7 76 2.2 SSW 24 32 13 17 1027.3 1027.3 0.0
19/11:00pm 14.0 11.3 10.2 78 2.0 SW 15 19 8 10 1026.9 1026.9 0.0
19/10:30pm 14.2 11.6 10.6 79 1.9 SSW 15 19 8 10 1026.3 1026.3 0.0
19/10:00pm 14.2 10.6 10.4 78 2.0 SW 20 28 11 15 1025.8 1025.8 0.0
19/09:30pm 14.3 10.3 10.5 78 2.0 SW 22 30 12 16 1025.2 1025.2 0.0
19/09:00pm 13.8 12.1 11.3 85 1.3 SW 11 20 6 11 1024.6 1024.6 0.0
19/08:30pm 14.0 12.8 11.5 85 1.3 SW 9 17 5 9 1023.7 1023.7 0.0
19/08:00pm 14.5 9.4 11.8 84 1.5 SSW 30 37 16 20 1022.5 1022.5 0.0
19/07:30pm 14.8 8.7 11.9 83 1.6 S 35 46 19 25 1021.4 1021.4 0.0
19/07:00pm 15.6 10.6 12.2 80 1.9 S 30 39 16 21 1020.3 1020.3 0.0
19/06:30pm 17.1 12.5 12.4 74 2.6 SSW 28 35 15 19 1019.5 1019.5 0.0
19/06:14pm 19.2 15.5 11.5 61 4.2 SSW 22 35 12 19 1018.9 1018.9 0.0
19/06:00pm 24.7 22.6 9.8 39 8.2 N 11 17 6 9 1018.2 1018.2 0.0
19/05:30pm 24.1 22.6 10.4 42 7.6 NNW 9 15 5 8 1018.1 1018.1 0.0
19/05:00pm 23.9 22.4 10.6 43 7.4 NW 9 13 5 7 1017.7 1017.7 0.0
19/04:30pm 23.5 20.8 8.8 39 7.9 NNW 13 19 7 10 1017.5 1017.5 0.0
19/04:00pm 23.6 20.1 8.8 39 7.9 NNW 17 22 9 12 1017.6 1017.6 0.0
19/03:30pm 25.3 20.7 8.3 34 9.1 NNW 22 33 12 18 1017.8 1017.8 0.0
19/03:00pm 26.6 22.9 9.5 34 9.4 NNW 19 30 10 16 1018.0 1018.0 0.0
19/02:30pm 25.9 21.4 8.4 33 9.4 N 22 32 12 17 1018.4 1018.4 0.0
19/02:00pm 26.3 21.0 6.9 29 10.2 NNW 24 35 13 19 1018.8 1018.8 0.0
19/01:30pm 25.1 20.9 8.1 34 9.1 NNW 20 33 11 18 1019.1 1019.1 0.0
19/01:00pm 25.9 21.3 8.0 32 9.6 NNW 22 30 12 16 1019.3 1019.3 0.0
19/12:30pm 25.3 20.4 8.3 34 9.1 NNW 24 33 13 18 1019.8 1019.8 0.0
19/12:00pm 24.7 19.0 6.9 32 9.3 NNW 26 37 14 20 1020.1 1020.1 0.0
19/11:30am 25.4 19.4 7.1 31 9.6 NW 28 39 15 21 1020.2 1020.2 0.0
19/11:00am 25.9 20.5 8.0 32 9.6 NW 26 41 14 22 1020.4 1020.4 0.0
19/10:30am 24.8 19.1 8.3 35 8.8 NNW 28 37 15 20 1020.7 1020.7 0.0
19/10:00am 24.1 18.2 7.3 34 8.8 NNW 28 35 15 19 1020.8 1020.8 0.0
19/09:30am 22.5 17.9 8.2 40 7.5 NW 22 32 12 17 1021.0 1021.0 0.0
19/09:00am 22.0 18.0 8.2 41 7.2 NW 19 24 10 13 1020.9 1020.9 0.0
19/08:30am 20.8 17.6 10.0 50 5.8 NW 17 20 9 11 1020.8 1020.8 0.0
19/08:00am 17.7 15.2 9.6 59 4.3 NW 13 17 7 9 1020.5 1020.5 0.0
19/07:30am 15.8 13.7 9.7 67 3.2 NW 11 15 6 8 1020.4 1020.4 0.0
19/07:00am 13.3 11.9 9.0 75 2.2 N 6 9 3 5 1020.4 1020.4 0.0
19/06:30am 13.8 11.8 8.6 71 2.6 NNE 9 13 5 7 1020.1 1020.1 0.0
19/06:00am 13.3 11.7 8.8 74 2.3 NNE 7 9 4 5 1020.0 1020.0 0.0
19/05:30am 13.7 11.5 9.2 74 2.3 NE 11 15 6 8 1020.0 1020.0 0.0
19/05:00am 12.1 10.4 10.0 87 1.1 NE 9 11 5 6 1020.0 1020.0 0.0
19/04:30am 10.8 8.9 9.2 90 0.8 NNE 9 11 5 6 1020.2 1020.2 0.0
19/04:00am 10.8 9.0 9.4 91 0.7 N 9 11 5 6 1020.6 1020.6 0.0
19/03:30am 11.1 8.9 9.2 88 1.0 N 11 13 6 7 1021.0 1021.0 0.0
19/03:00am 11.3 9.2 9.7 90 0.8 N 11 15 6 8 1021.5 1021.5 0.0
19/02:30am 11.0 9.6 9.4 90 0.8 N 7 7 4 4 1022.0 1022.0 0.0
19/02:00am 11.1 9.6 9.0 87 1.0 NNW 7 9 4 5 1022.4 1022.4 0.0
19/01:30am 11.7 9.9 9.3 85 1.2 NNW 9 9 5 5 1022.8 1022.8 0.0
19/01:00am 11.3 9.3 8.7 84 1.3 NW 9 11 5 6 1023.3 1023.3 0.0
19/12:30am 11.7 9.7 8.7 82 1.5 NW 9 11 5 6 1023.6 1023.6 0.0
19/12:00am 11.2 9.6 8.6 84 1.3 NW 7 9 4 5 1023.8 1023.8 0.0
 
Date/Time
EDT
Temp
°C
App
Temp
°C
Dew
Point
Rel
Hum
%
Delta-T
°C
Wind Press
QNH
hPa
Press
MSL
hPa
Rain
since 9 am
mm
Dir
 
Spd
km/h
Gust
km/h
Spd
kts
Gust
kts
18/11:30pm 11.0 8.8 7.9 81 1.5 NNW 9 11 5 6 1024.3 1024.3 0.0
18/11:00pm 12.3 10.7 8.8 79 1.7 ESE 7 7 4 4 1024.2 1024.2 0.0
18/10:30pm 11.1 9.3 7.8 80 1.6 SSW 7 9 4 5 1024.4 1024.4 0.0
18/10:00pm 12.7 9.7 7.6 71 2.5 SSW 13 15 7 8 1024.5 1024.5 0.0
18/09:30pm 14.9 12.1 8.6 66 3.2 SE 13 15 7 8 1024.2 1024.2 0.0
18/09:00pm 14.9 14.7 9.1 68 3.0 CALM 0 0 0 0 1024.0 1024.0 0.0
18/08:30pm 15.7 13.5 9.4 66 3.3 SE 11 13 6 7 1023.7 1023.7 0.0
18/08:00pm 16.4 14.0 8.6 60 4.0 E 11 15 6 8 1023.3 1023.3 0.0
18/07:30pm 16.3 13.4 9.7 65 3.5 ENE 15 22 8 12 1022.8 1022.8 0.0
18/07:00pm 16.7 12.5 8.1 57 4.4 E 20 28 11 15 1022.4 1022.4 0.0
18/06:30pm 16.8 15.6 10.4 66 3.4 E 7 13 4 7 1023.3 1023.3 0.0
18/06:00pm 17.6 15.1 9.8 60 4.1 E 13 15 7 8 1022.9 1022.9 0.0
18/05:30pm 18.4 15.8 9.2 55 4.8 ESE 13 17 7 9 1022.9 1022.9 0.0
18/05:00pm 19.3 16.4 11.1 59 4.5 ESE 17 20 9 11 1022.4 1022.4 0.0
18/04:30pm 20.2 16.4 9.2 49 5.8 ESE 19 24 10 13 1022.7 1022.7 0.0
18/04:00pm 21.0 17.5 10.2 50 5.8 E 19 22 10 12 1022.7 1022.7 0.0
18/03:30pm 21.9 19.1 11.3 51 5.9 E 17 22 9 12 1022.9 1022.9 0.0
18/03:00pm 21.2 17.8 10.4 50 5.9 E 19 22 10 12 1023.4 1023.4 0.0
18/02:30pm 21.8 18.5 10.9 50 6.0 E 19 22 10 12 1023.8 1023.8 0.0
18/02:00pm 22.5 21.2 10.0 45 6.8 ESE 7 19 4 10 1024.3 1024.3 0.0
18/01:30pm 21.1 19.0 6.6 39 7.4 ESE 7 11 4 6 1025.0 1025.0 0.0
18/01:00pm 20.9 18.9 7.2 41 7.0 SSW 7 13 4 7 1025.4 1025.4 0.0
18/12:30pm 21.2 19.2 8.8 45 6.6 NW 9 17 5 9 1025.7 1025.7 0.0
18/12:00pm 20.3 19.0 9.2 49 5.9 ESE 6 9 3 5 1026.1 1026.1 0.0
18/11:30am 18.3 17.3 10.4 60 4.2 SE 6 9 3 5 1026.5 1026.5 0.0
18/11:00am 17.2 15.9 10.1 63 3.7 NNE 7 11 4 6 1026.7 1026.7 0.0
18/10:30am 16.7 15.8 10.8 68 3.2 E 6 9 3 5 1027.1 1027.1 0.0

Other Formats:

Comma delimited format used in spreadsheet applications
http://www.bom.gov.au/fwo/IDV60801/IDV60801.94912.axf

JavaScript Object Notation format (JSON) in row-major order
http://www.bom.gov.au/fwo/IDV60801/IDV60801.94912.json